Airfield :
LOGIN :

Register | Disclaimer

   EN    FR    IT 

 










Legend :    VFR   Marginal VFR   IFR   Intensive IFR   Very Intensive IFR
Visi :
Ceiling :
>= 8 km
>= 3000ft
5 to 8 km
1000 to 3000 ft
1500m to 5 km
500 to 1000 ft
800 to 1500m
200 to 500 ft
< 800m
< 200 ft
Symbols :   Thunderstorms  Fog  Heavy snow  Heavy precipitations  Wind > 20 kt
SIGMETs :     Misc.  Thunderstorms  Icing  Turbulence  Mountain Waves  Volcanic Ashes







- Airport Elevation : 74 ft
- IATA code : EIN


EHEH - Eindhoven

CURRENT METAR :
  • 301625Z AUTO 12013G24KT 070V150 9999 FEW140 19/00 Q1004 BLU 11012KT CAVOK TEMPO 13015G25KT

EXPIRED METARs :
  • 301555Z AUTO 12014G24KT 090V160 9999 FEW170 19/00 Q1005 BLU 11012KT CAVOK TEMPO 13015G25KT
  • 301525Z AUTO 11014G26KT 080V160 9999 SCT250 19/M01 Q1005 BLU 11012KT CAVOK TEMPO 13015G25KT
  • 301455Z AUTO 12011KT 050V150 9999 FEW250 19/M00 Q1005 BLU 11012KT CAVOK TEMPO 13015G25KT
  • 301425Z AUTO 12013KT 080V150 9999 FEW260 19/00 Q1006 BLU 11012KT CAVOK TEMPO 13015G25KT
  • 301355Z AUTO 11016KT 050V170 9999 FEW150 BKN240 BKN380 19/01 Q1006 BLU 11012KT CAVOK TEMPO 13015G25KT

TAF COR TAF EHEH
Valid from the 30 at 12:00 until the 01 at 18:00 UTC


301204Z 3012/0118 11012KT CAVOK
TEMPO 3012/3021 13015G25KT
BECMG 0104/0106 22010KT SCT010 BKN015
TEMPO 0106/0110 SCT007 BKN010
BECMG 0109/0111 SCT025 BKN050
TEMPO 0114/0118 SCT020CB BKN030
PROB30
TEMPO 0114/0118 4000 TSRA SCT018CB BKN025
No reported NOTAMs for that airfield.



MET'MAP, your aeronautical weather chart ! - Copyright ORBIFLY December 2007 - Disclaimer

ORBIFLY MET'MAP TEAM :

Programming & Development : Alexandra Zaïnal
Concept & Development : Baudouin d'Aumeries
Co-Development & Prog : Marc-Olivier Méhu
Technical & hardware support : Manuel Goepfert

Contact : metmap@orbifly.com




SOURCES & CREDITS :

   NOAA